sensor_id;sensor_type;location;lat;lon;timestamp;temperature;humidity
22006;DHT22;11167;46.988;15.470;2023-03-01T00:01:27;5.60;71.80
22006;DHT22;11167;46.988;15.470;2023-03-01T00:03:28;5.60;71.80
22006;DHT22;11167;46.988;15.470;2023-03-01T00:05:29;5.60;71.90
22006;DHT22;11167;46.988;15.470;2023-03-01T00:07:30;5.50;71.70
22006;DHT22;11167;46.988;15.470;2023-03-01T00:09:32;5.50;71.90
22006;DHT22;11167;46.988;15.470;2023-03-01T00:11:33;5.50;71.90
22006;DHT22;11167;46.988;15.470;2023-03-01T00:13:34;5.50;71.90
22006;DHT22;11167;46.988;15.470;2023-03-01T00:15:40;5.50;71.90
22006;DHT22;11167;46.988;15.470;2023-03-01T00:17:38;5.50;72.00
22006;DHT22;11167;46.988;15.470;2023-03-01T00:19:39;5.50;72.10
22006;DHT22;11167;46.988;15.470;2023-03-01T00:21:40;5.50;71.90
22006;DHT22;11167;46.988;15.470;2023-03-01T00:23:41;5.50;71.90
22006;DHT22;11167;46.988;15.470;2023-03-01T00:25:43;5.50;72.00
22006;DHT22;11167;46.988;15.470;2023-03-01T00:27:44;5.50;72.00
22006;DHT22;11167;46.988;15.470;2023-03-01T00:29:45;5.50;72.00
22006;DHT22;11167;46.988;15.470;2023-03-01T00:34:06;5.50;71.90
22006;DHT22;11167;46.988;15.470;2023-03-01T00:36:09;5.40;72.00
22006;DHT22;11167;46.988;15.470;2023-03-01T00:38:10;5.50;72.10
22006;DHT22;11167;46.988;15.470;2023-03-01T00:40:11;5.40;72.10
22006;DHT22;11167;46.988;15.470;2023-03-01T00:42:13;5.40;72.10
22006;DHT22;11167;46.988;15.470;2023-03-01T00:44:13;5.40;72.10
22006;DHT22;11167;46.988;15.470;2023-03-01T00:46:18;5.40;72.00
22006;DHT22;11167;46.988;15.470;2023-03-01T00:48:17;5.40;72.00
22006;DHT22;11167;46.988;15.470;2023-03-01T00:50:18;5.40;72.10
22006;DHT22;11167;46.988;15.470;2023-03-01T00:52:19;5.40;72.10
22006;DHT22;11167;46.988;15.470;2023-03-01T00:54:20;5.40;72.10
22006;DHT22;11167;46.988;15.470;2023-03-01T00:56:21;5.40;72.10
22006;DHT22;11167;46.988;15.470;2023-03-01T00:58:22;5.40;72.10
22006;DHT22;11167;46.988;15.470;2023-03-01T01:00:23;5.40;72.10
22006;DHT22;11167;46.988;15.470;2023-03-01T01:02:24;5.40;72.10
22006;DHT22;11167;46.988;15.470;2023-03-01T01:04:24;5.40;72.20
22006;DHT22;11167;46.988;15.470;2023-03-01T01:06:30;5.30;72.10
22006;DHT22;11167;46.988;15.470;2023-03-01T01:08:28;5.40;72.20
22006;DHT22;11167;46.988;15.470;2023-03-01T01:10:29;5.30;72.30
22006;DHT22;11167;46.988;15.470;2023-03-01T01:12:30;5.30;72.20
22006;DHT22;11167;46.988;15.470;2023-03-01T01:14:31;5.40;72.30
22006;DHT22;11167;46.988;15.470;2023-03-01T01:16:32;5.30;72.20
22006;DHT22;11167;46.988;15.470;2023-03-01T01:18:33;5.30;72.20
22006;DHT22;11167;46.988;15.470;2023-03-01T01:20:35;5.30;72.30
22006;DHT22;11167;46.988;15.470;2023-03-01T01:22:36;5.30;72.20
22006;DHT22;11167;46.988;15.470;2023-03-01T01:24:36;5.30;72.30
22006;DHT22;11167;46.988;15.470;2023-03-01T01:26:37;5.30;72.30
22006;DHT22;11167;46.988;15.470;2023-03-01T01:28:38;5.30;72.30
22006;DHT22;11167;46.988;15.470;2023-03-01T01:30:39;5.30;72.30
22006;DHT22;11167;46.988;15.470;2023-03-01T01:32:40;5.30;72.30
22006;DHT22;11167;46.988;15.470;2023-03-01T01:34:41;5.30;72.30
22006;DHT22;11167;46.988;15.470;2023-03-01T01:36:42;5.30;72.30
22006;DHT22;11167;46.988;15.470;2023-03-01T01:38:43;5.30;72.30
22006;DHT22;11167;46.988;15.470;2023-03-01T01:40:45;5.30;72.30
22006;DHT22;11167;46.988;15.470;2023-03-01T01:42:46;5.20;72.30
22006;DHT22;11167;46.988;15.470;2023-03-01T01:44:47;5.30;72.40
22006;DHT22;11167;46.988;15.470;2023-03-01T01:47:01;5.20;72.30
22006;DHT22;11167;46.988;15.470;2023-03-01T01:49:05;5.20;72.40
22006;DHT22;11167;46.988;15.470;2023-03-01T01:51:05;5.20;72.40
22006;DHT22;11167;46.988;15.470;2023-03-01T01:53:10;5.20;72.50
22006;DHT22;11167;46.988;15.470;2023-03-01T01:55:10;5.20;72.40
22006;DHT22;11167;46.988;15.470;2023-03-01T01:57:16;5.20;72.50
22006;DHT22;11167;46.988;15.470;2023-03-01T01:59:14;5.20;72.20
22006;DHT22;11167;46.988;15.470;2023-03-01T02:01:15;5.20;72.40
22006;DHT22;11167;46.988;15.470;2023-03-01T02:03:17;5.20;72.40
22006;DHT22;11167;46.988;15.470;2023-03-01T02:07:27;5.20;72.40
22006;DHT22;11167;46.988;15.470;2023-03-01T02:09:28;5.20;72.50
22006;DHT22;11167;46.988;15.470;2023-03-01T02:11:31;5.20;72.50
22006;DHT22;11167;46.988;15.470;2023-03-01T02:13:33;5.20;72.80
22006;DHT22;11167;46.988;15.470;2023-03-01T02:15:35;5.20;72.60
22006;DHT22;11167;46.988;15.470;2023-03-01T02:17:36;5.20;72.60
22006;DHT22;11167;46.988;15.470;2023-03-01T02:19:49;5.10;72.40
22006;DHT22;11167;46.988;15.470;2023-03-01T02:24:32;5.10;72.50
22006;DHT22;11167;46.988;15.470;2023-03-01T02:28:31;5.10;72.60
22006;DHT22;11167;46.988;15.470;2023-03-01T02:30:32;5.10;72.50
22006;DHT22;11167;46.988;15.470;2023-03-01T02:32:34;5.10;72.50
22006;DHT22;11167;46.988;15.470;2023-03-01T02:34:35;5.10;72.60
22006;DHT22;11167;46.988;15.470;2023-03-01T02:36:37;5.10;72.60
22006;DHT22;11167;46.988;15.470;2023-03-01T02:38:39;5.10;72.60
22006;DHT22;11167;46.988;15.470;2023-03-01T02:40:40;5.10;72.60
22006;DHT22;11167;46.988;15.470;2023-03-01T02:42:49;5.10;72.70
22006;DHT22;11167;46.988;15.470;2023-03-01T02:44:50;5.10;72.60
22006;DHT22;11167;46.988;15.470;2023-03-01T02:46:52;5.10;72.60
22006;DHT22;11167;46.988;15.470;2023-03-01T02:48:54;5.10;72.60
22006;DHT22;11167;46.988;15.470;2023-03-01T02:51:01;5.10;72.70
22006;DHT22;11167;46.988;15.470;2023-03-01T02:53:01;5.10;72.70
22006;DHT22;11167;46.988;15.470;2023-03-01T02:55:10;5.10;72.70
22006;DHT22;11167;46.988;15.470;2023-03-01T02:57:12;5.10;72.70
22006;DHT22;11167;46.988;15.470;2023-03-01T02:59:13;5.10;72.80
22006;DHT22;11167;46.988;15.470;2023-03-01T03:01:14;5.00;72.60
22006;DHT22;11167;46.988;15.470;2023-03-01T03:03:17;5.10;72.70
22006;DHT22;11167;46.988;15.470;2023-03-01T03:05:20;5.10;72.80
22006;DHT22;11167;46.988;15.470;2023-03-01T03:07:21;5.00;72.10
22006;DHT22;11167;46.988;15.470;2023-03-01T03:09:22;5.10;72.80
22006;DHT22;11167;46.988;15.470;2023-03-01T03:11:23;5.10;72.80
22006;DHT22;11167;46.988;15.470;2023-03-01T03:13:24;5.10;72.80
22006;DHT22;11167;46.988;15.470;2023-03-01T03:15:27;5.10;72.80
22006;DHT22;11167;46.988;15.470;2023-03-01T03:17:28;5.10;72.80
22006;DHT22;11167;46.988;15.470;2023-03-01T03:19:29;5.10;72.90
22006;DHT22;11167;46.988;15.470;2023-03-01T03:21:34;5.00;72.80
22006;DHT22;11167;46.988;15.470;2023-03-01T03:25:53;5.00;72.80
22006;DHT22;11167;46.988;15.470;2023-03-01T03:27:54;5.00;72.80
22006;DHT22;11167;46.988;15.470;2023-03-01T03:29:59;5.00;72.80
22006;DHT22;11167;46.988;15.470;2023-03-01T03:31:59;5.00;72.80
22006;DHT22;11167;46.988;15.470;2023-03-01T03:34:00;5.00;72.80
22006;DHT22;11167;46.988;15.470;2023-03-01T03:36:01;5.00;72.80
22006;DHT22;11167;46.988;15.470;2023-03-01T03:38:04;5.00;73.70
22006;DHT22;11167;46.988;15.470;2023-03-01T03:40:07;5.00;72.90
22006;DHT22;11167;46.988;15.470;2023-03-01T03:42:10;5.00;72.90
22006;DHT22;11167;46.988;15.470;2023-03-01T03:44:10;5.00;72.90
22006;DHT22;11167;46.988;15.470;2023-03-01T03:46:12;5.00;72.90
22006;DHT22;11167;46.988;15.470;2023-03-01T03:48:13;5.00;72.90
22006;DHT22;11167;46.988;15.470;2023-03-01T03:50:15;5.00;72.90
22006;DHT22;11167;46.988;15.470;2023-03-01T03:52:16;5.00;72.90
22006;DHT22;11167;46.988;15.470;2023-03-01T03:54:17;5.00;73.00
22006;DHT22;11167;46.988;15.470;2023-03-01T03:56:18;5.00;72.90
22006;DHT22;11167;46.988;15.470;2023-03-01T03:58:21;5.00;73.00
22006;DHT22;11167;46.988;15.470;2023-03-01T04:00:23;5.00;73.00
22006;DHT22;11167;46.988;15.470;2023-03-01T04:02:24;5.00;73.00
22006;DHT22;11167;46.988;15.470;2023-03-01T04:04:25;5.00;73.00
22006;DHT22;11167;46.988;15.470;2023-03-01T04:06:26;5.00;73.00
22006;DHT22;11167;46.988;15.470;2023-03-01T04:08:27;5.00;73.00
22006;DHT22;11167;46.988;15.470;2023-03-01T04:10:29;5.00;73.00
22006;DHT22;11167;46.988;15.470;2023-03-01T04:12:30;5.00;73.10
22006;DHT22;11167;46.988;15.470;2023-03-01T04:14:33;5.00;73.20
22006;DHT22;11167;46.988;15.470;2023-03-01T04:16:34;5.00;73.10
22006;DHT22;11167;46.988;15.470;2023-03-01T04:18:35;5.00;73.10
22006;DHT22;11167;46.988;15.470;2023-03-01T04:20:36;5.00;73.10
22006;DHT22;11167;46.988;15.470;2023-03-01T04:22:37;5.00;73.10
22006;DHT22;11167;46.988;15.470;2023-03-01T04:24:38;5.00;73.10
22006;DHT22;11167;46.988;15.470;2023-03-01T04:26:39;5.00;73.20
22006;DHT22;11167;46.988;15.470;2023-03-01T04:28:41;5.00;73.20
22006;DHT22;11167;46.988;15.470;2023-03-01T04:30:46;5.00;73.20
22006;DHT22;11167;46.988;15.470;2023-03-01T04:32:47;5.00;73.20
22006;DHT22;11167;46.988;15.470;2023-03-01T04:34:48;5.00;73.20
22006;DHT22;11167;46.988;15.470;2023-03-01T04:36:50;5.00;73.20
22006;DHT22;11167;46.988;15.470;2023-03-01T04:38:51;4.90;73.20
22006;DHT22;11167;46.988;15.470;2023-03-01T04:40:52;5.00;73.20
22006;DHT22;11167;46.988;15.470;2023-03-01T04:42:53;4.90;73.90
22006;DHT22;11167;46.988;15.470;2023-03-01T04:44:54;5.00;73.20
22006;DHT22;11167;46.988;15.470;2023-03-01T04:46:55;4.90;73.10
22006;DHT22;11167;46.988;15.470;2023-03-01T04:48:56;4.90;73.20
22006;DHT22;11167;46.988;15.470;2023-03-01T04:50:58;4.90;73.20
22006;DHT22;11167;46.988;15.470;2023-03-01T04:52:59;4.90;73.20
22006;DHT22;11167;46.988;15.470;2023-03-01T04:55:00;5.00;73.30
22006;DHT22;11167;46.988;15.470;2023-03-01T04:57:01;4.90;73.20
22006;DHT22;11167;46.988;15.470;2023-03-01T04:59:02;4.90;73.20
22006;DHT22;11167;46.988;15.470;2023-03-01T05:01:09;4.90;73.30
22006;DHT22;11167;46.988;15.470;2023-03-01T05:03:12;4.90;73.20
22006;DHT22;11167;46.988;15.470;2023-03-01T05:05:15;4.90;73.30
22006;DHT22;11167;46.988;15.470;2023-03-01T05:07:16;4.90;73.30
22006;DHT22;11167;46.988;15.470;2023-03-01T05:09:18;4.90;73.20
22006;DHT22;11167;46.988;15.470;2023-03-01T05:11:19;4.90;73.20
22006;DHT22;11167;46.988;15.470;2023-03-01T05:13:20;4.90;73.20
22006;DHT22;11167;46.988;15.470;2023-03-01T05:15:22;4.90;73.30
22006;DHT22;11167;46.988;15.470;2023-03-01T05:17:24;4.90;73.30
22006;DHT22;11167;46.988;15.470;2023-03-01T05:19:25;4.90;73.30
22006;DHT22;11167;46.988;15.470;2023-03-01T05:21:27;4.90;73.30
22006;DHT22;11167;46.988;15.470;2023-03-01T05:23:28;4.90;73.30
22006;DHT22;11167;46.988;15.470;2023-03-01T05:25:29;4.90;73.30
22006;DHT22;11167;46.988;15.470;2023-03-01T05:27:32;4.90;73.30
22006;DHT22;11167;46.988;15.470;2023-03-01T05:29:33;4.90;73.30
22006;DHT22;11167;46.988;15.470;2023-03-01T05:31:35;4.90;73.30
22006;DHT22;11167;46.988;15.470;2023-03-01T05:33:36;4.90;73.40
22006;DHT22;11167;46.988;15.470;2023-03-01T05:35:42;4.90;73.30
22006;DHT22;11167;46.988;15.470;2023-03-01T05:37:43;4.90;73.70
22006;DHT22;11167;46.988;15.470;2023-03-01T05:39:45;4.80;73.40
22006;DHT22;11167;46.988;15.470;2023-03-01T05:41:46;4.90;73.30
22006;DHT22;11167;46.988;15.470;2023-03-01T05:43:46;4.80;73.30
22006;DHT22;11167;46.988;15.470;2023-03-01T05:45:47;4.90;73.40
22006;DHT22;11167;46.988;15.470;2023-03-01T05:47:48;4.90;73.30
22006;DHT22;11167;46.988;15.470;2023-03-01T05:49:49;4.80;73.30
22006;DHT22;11167;46.988;15.470;2023-03-01T05:51:51;4.80;73.30
22006;DHT22;11167;46.988;15.470;2023-03-01T05:53:52;4.80;73.30
22006;DHT22;11167;46.988;15.470;2023-03-01T05:55:53;4.80;73.40
22006;DHT22;11167;46.988;15.470;2023-03-01T05:57:54;4.80;73.30
22006;DHT22;11167;46.988;15.470;2023-03-01T05:59:56;4.80;73.30
22006;DHT22;11167;46.988;15.470;2023-03-01T06:01:57;4.80;73.30
22006;DHT22;11167;46.988;15.470;2023-03-01T06:03:58;4.80;73.30
22006;DHT22;11167;46.988;15.470;2023-03-01T06:05:58;4.80;73.30
22006;DHT22;11167;46.988;15.470;2023-03-01T06:08:00;4.80;73.30
22006;DHT22;11167;46.988;15.470;2023-03-01T06:10:01;4.80;73.30
22006;DHT22;11167;46.988;15.470;2023-03-01T06:12:04;4.80;73.30
22006;DHT22;11167;46.988;15.470;2023-03-01T06:14:05;4.80;73.40
22006;DHT22;11167;46.988;15.470;2023-03-01T06:16:08;4.80;73.50
22006;DHT22;11167;46.988;15.470;2023-03-01T06:18:09;4.80;73.30
22006;DHT22;11167;46.988;15.470;2023-03-01T06:20:11;4.80;73.40
22006;DHT22;11167;46.988;15.470;2023-03-01T06:22:12;4.80;73.30
22006;DHT22;11167;46.988;15.470;2023-03-01T06:24:13;4.80;73.50
22006;DHT22;11167;46.988;15.470;2023-03-01T06:26:14;4.80;73.40
22006;DHT22;11167;46.988;15.470;2023-03-01T06:28:15;4.80;73.40
22006;DHT22;11167;46.988;15.470;2023-03-01T06:30:17;4.80;73.40
22006;DHT22;11167;46.988;15.470;2023-03-01T06:32:18;4.80;73.40
22006;DHT22;11167;46.988;15.470;2023-03-01T06:34:19;4.80;73.50
22006;DHT22;11167;46.988;15.470;2023-03-01T06:36:22;4.80;73.40
22006;DHT22;11167;46.988;15.470;2023-03-01T06:38:23;4.80;73.40
22006;DHT22;11167;46.988;15.470;2023-03-01T06:40:24;4.80;73.50
22006;DHT22;11167;46.988;15.470;2023-03-01T06:42:25;4.80;73.50
22006;DHT22;11167;46.988;15.470;2023-03-01T06:44:27;4.80;73.50
22006;DHT22;11167;46.988;15.470;2023-03-01T06:46:30;4.80;73.50
22006;DHT22;11167;46.988;15.470;2023-03-01T06:48:37;4.80;73.50
22006;DHT22;11167;46.988;15.470;2023-03-01T06:50:38;4.80;73.50
22006;DHT22;11167;46.988;15.470;2023-03-01T06:52:39;4.80;73.50
22006;DHT22;11167;46.988;15.470;2023-03-01T06:54:40;4.80;73.50
22006;DHT22;11167;46.988;15.470;2023-03-01T06:56:41;4.80;73.50
22006;DHT22;11167;46.988;15.470;2023-03-01T06:58:41;4.80;73.50
22006;DHT22;11167;46.988;15.470;2023-03-01T07:00:42;4.80;73.50
22006;DHT22;11167;46.988;15.470;2023-03-01T07:02:44;4.80;73.50
22006;DHT22;11167;46.988;15.470;2023-03-01T07:04:45;4.80;73.50
22006;DHT22;11167;46.988;15.470;2023-03-01T07:06:46;4.80;73.00
22006;DHT22;11167;46.988;15.470;2023-03-01T07:08:49;4.80;73.50
22006;DHT22;11167;46.988;15.470;2023-03-01T07:10:56;4.80;73.50
22006;DHT22;11167;46.988;15.470;2023-03-01T07:12:57;4.80;73.50
22006;DHT22;11167;46.988;15.470;2023-03-01T07:15:00;4.80;73.50
22006;DHT22;11167;46.988;15.470;2023-03-01T07:17:01;4.80;73.50
22006;DHT22;11167;46.988;15.470;2023-03-01T07:19:02;4.80;73.50
22006;DHT22;11167;46.988;15.470;2023-03-01T07:21:09;4.80;73.50
22006;DHT22;11167;46.988;15.470;2023-03-01T07:23:11;4.80;73.50
22006;DHT22;11167;46.988;15.470;2023-03-01T07:25:12;4.80;73.50
22006;DHT22;11167;46.988;15.470;2023-03-01T07:27:13;4.80;73.50
22006;DHT22;11167;46.988;15.470;2023-03-01T07:29:14;4.80;73.50
22006;DHT22;11167;46.988;15.470;2023-03-01T07:31:15;4.80;73.50
22006;DHT22;11167;46.988;15.470;2023-03-01T07:33:16;4.80;73.50
22006;DHT22;11167;46.988;15.470;2023-03-01T07:35:17;4.80;73.50
22006;DHT22;11167;46.988;15.470;2023-03-01T07:37:18;4.80;73.50
22006;DHT22;11167;46.988;15.470;2023-03-01T07:39:19;4.80;73.50
22006;DHT22;11167;46.988;15.470;2023-03-01T07:41:20;4.80;73.50
22006;DHT22;11167;46.988;15.470;2023-03-01T07:43:20;4.80;73.50
22006;DHT22;11167;46.988;15.470;2023-03-01T07:45:21;4.80;73.50
22006;DHT22;11167;46.988;15.470;2023-03-01T07:47:22;4.80;73.50
22006;DHT22;11167;46.988;15.470;2023-03-01T07:49:23;4.80;73.50
22006;DHT22;11167;46.988;15.470;2023-03-01T07:51:26;4.80;73.60
22006;DHT22;11167;46.988;15.470;2023-03-01T07:53:27;4.80;73.50
22006;DHT22;11167;46.988;15.470;2023-03-01T07:55:28;4.80;73.50
22006;DHT22;11167;46.988;15.470;2023-03-01T07:57:29;4.80;73.50
22006;DHT22;11167;46.988;15.470;2023-03-01T07:59:30;4.80;73.50
22006;DHT22;11167;46.988;15.470;2023-03-01T08:01:31;4.80;73.50
22006;DHT22;11167;46.988;15.470;2023-03-01T08:03:33;4.80;73.60
22006;DHT22;11167;46.988;15.470;2023-03-01T08:05:34;4.80;73.50
22006;DHT22;11167;46.988;15.470;2023-03-01T08:07:35;4.80;73.50
22006;DHT22;11167;46.988;15.470;2023-03-01T08:09:36;4.80;73.50
22006;DHT22;11167;46.988;15.470;2023-03-01T08:11:39;4.80;73.60
22006;DHT22;11167;46.988;15.470;2023-03-01T08:13:41;4.80;73.50
22006;DHT22;11167;46.988;15.470;2023-03-01T08:15:42;4.80;73.60
22006;DHT22;11167;46.988;15.470;2023-03-01T08:17:43;4.80;73.60
22006;DHT22;11167;46.988;15.470;2023-03-01T08:19:44;4.90;73.60
22006;DHT22;11167;46.988;15.470;2023-03-01T08:21:45;4.90;73.60
22006;DHT22;11167;46.988;15.470;2023-03-01T08:23:46;4.90;73.60
22006;DHT22;11167;46.988;15.470;2023-03-01T08:25:47;4.80;73.60
22006;DHT22;11167;46.988;15.470;2023-03-01T08:27:48;4.80;73.50
22006;DHT22;11167;46.988;15.470;2023-03-01T08:29:49;4.80;73.50
22006;DHT22;11167;46.988;15.470;2023-03-01T08:31:50;4.80;73.50
22006;DHT22;11167;46.988;15.470;2023-03-01T08:33:53;4.90;73.60
22006;DHT22;11167;46.988;15.470;2023-03-01T08:36:03;4.90;73.60
22006;DHT22;11167;46.988;15.470;2023-03-01T08:38:04;4.90;73.60
22006;DHT22;11167;46.988;15.470;2023-03-01T08:40:05;4.90;73.60
22006;DHT22;11167;46.988;15.470;2023-03-01T08:42:08;4.90;73.50
22006;DHT22;11167;46.988;15.470;2023-03-01T08:44:09;4.90;73.50
22006;DHT22;11167;46.988;15.470;2023-03-01T08:46:11;4.90;73.50
22006;DHT22;11167;46.988;15.470;2023-03-01T08:48:12;4.90;73.50
22006;DHT22;11167;46.988;15.470;2023-03-01T08:50:13;4.90;73.50
22006;DHT22;11167;46.988;15.470;2023-03-01T08:52:14;4.90;73.50
22006;DHT22;11167;46.988;15.470;2023-03-01T08:54:16;4.90;73.50
22006;DHT22;11167;46.988;15.470;2023-03-01T08:56:17;4.90;73.50
22006;DHT22;11167;46.988;15.470;2023-03-01T09:00:22;4.90;73.50
22006;DHT22;11167;46.988;15.470;2023-03-01T09:02:24;4.90;73.50
22006;DHT22;11167;46.988;15.470;2023-03-01T09:04:25;4.90;74.30
22006;DHT22;11167;46.988;15.470;2023-03-01T09:06:26;4.90;73.30
22006;DHT22;11167;46.988;15.470;2023-03-01T09:08:27;4.90;73.30
22006;DHT22;11167;46.988;15.470;2023-03-01T09:10:28;4.90;73.30
22006;DHT22;11167;46.988;15.470;2023-03-01T09:12:29;4.90;73.30
22006;DHT22;11167;46.988;15.470;2023-03-01T09:14:30;4.90;73.20
22006;DHT22;11167;46.988;15.470;2023-03-01T09:16:31;5.00;73.30
22006;DHT22;11167;46.988;15.470;2023-03-01T09:18:34;5.00;73.30
22006;DHT22;11167;46.988;15.470;2023-03-01T09:20:35;5.00;73.40
22006;DHT22;11167;46.988;15.470;2023-03-01T09:22:36;5.00;73.30
22006;DHT22;11167;46.988;15.470;2023-03-01T09:24:37;5.00;73.30
22006;DHT22;11167;46.988;15.470;2023-03-01T09:26:38;5.00;73.30
22006;DHT22;11167;46.988;15.470;2023-03-01T09:28:39;5.00;73.30
22006;DHT22;11167;46.988;15.470;2023-03-01T09:30:41;5.00;73.30
22006;DHT22;11167;46.988;15.470;2023-03-01T09:32:42;5.00;73.30
22006;DHT22;11167;46.988;15.470;2023-03-01T09:34:45;5.00;73.30
22006;DHT22;11167;46.988;15.470;2023-03-01T09:37:04;5.00;73.20
22006;DHT22;11167;46.988;15.470;2023-03-01T09:39:05;5.00;73.20
22006;DHT22;11167;46.988;15.470;2023-03-01T09:41:19;5.00;73.00
22006;DHT22;11167;46.988;15.470;2023-03-01T09:45:33;5.00;73.00
22006;DHT22;11167;46.988;15.470;2023-03-01T09:47:32;5.00;73.00
22006;DHT22;11167;46.988;15.470;2023-03-01T09:49:35;5.00;72.90
22006;DHT22;11167;46.988;15.470;2023-03-01T09:51:37;5.00;72.90
22006;DHT22;11167;46.988;15.470;2023-03-01T09:53:38;5.00;72.90
22006;DHT22;11167;46.988;15.470;2023-03-01T09:55:59;5.00;72.90
22006;DHT22;11167;46.988;15.470;2023-03-01T09:57:55;5.00;73.00
22006;DHT22;11167;46.988;15.470;2023-03-01T10:00:03;5.00;73.00
22006;DHT22;11167;46.988;15.470;2023-03-01T10:06:22;5.10;73.10
22006;DHT22;11167;46.988;15.470;2023-03-01T10:08:27;5.00;73.00
22006;DHT22;11167;46.988;15.470;2023-03-01T10:10:35;5.10;73.00
22006;DHT22;11167;46.988;15.470;2023-03-01T10:12:40;5.10;73.80
22006;DHT22;11167;46.988;15.470;2023-03-01T10:18:56;5.10;73.00
22006;DHT22;11167;46.988;15.470;2023-03-01T10:21:01;5.10;73.00
22006;DHT22;11167;46.988;15.470;2023-03-01T10:23:02;5.10;73.00
22006;DHT22;11167;46.988;15.470;2023-03-01T10:25:03;5.10;73.00
22006;DHT22;11167;46.988;15.470;2023-03-01T10:27:26;5.10;73.00
22006;DHT22;11167;46.988;15.470;2023-03-01T10:29:07;5.10;73.00
22006;DHT22;11167;46.988;15.470;2023-03-01T10:31:12;5.20;73.00
22006;DHT22;11167;46.988;15.470;2023-03-01T10:33:16;5.20;73.10
22006;DHT22;11167;46.988;15.470;2023-03-01T10:37:20;5.20;73.00
22006;DHT22;11167;46.988;15.470;2023-03-01T10:39:26;5.20;73.00
22006;DHT22;11167;46.988;15.470;2023-03-01T10:41:27;5.20;73.00
22006;DHT22;11167;46.988;15.470;2023-03-01T10:43:32;5.20;73.00
22006;DHT22;11167;46.988;15.470;2023-03-01T10:45:33;5.20;73.00
22006;DHT22;11167;46.988;15.470;2023-03-01T10:47:33;5.30;72.40
22006;DHT22;11167;46.988;15.470;2023-03-01T10:49:34;5.30;72.90
22006;DHT22;11167;46.988;15.470;2023-03-01T10:51:35;5.30;73.00
22006;DHT22;11167;46.988;15.470;2023-03-01T10:53:44;5.30;73.00
22006;DHT22;11167;46.988;15.470;2023-03-01T10:55:45;5.30;72.90
22006;DHT22;11167;46.988;15.470;2023-03-01T10:57:47;5.30;73.00
22006;DHT22;11167;46.988;15.470;2023-03-01T10:59:48;5.30;72.90
22006;DHT22;11167;46.988;15.470;2023-03-01T11:04:12;5.30;72.90
22006;DHT22;11167;46.988;15.470;2023-03-01T11:08:26;5.30;73.00
22006;DHT22;11167;46.988;15.470;2023-03-01T11:10:20;5.30;72.90
22006;DHT22;11167;46.988;15.470;2023-03-01T11:12:22;5.30;72.90
22006;DHT22;11167;46.988;15.470;2023-03-01T11:14:28;5.30;72.90
22006;DHT22;11167;46.988;15.470;2023-03-01T11:16:40;5.30;72.90
22006;DHT22;11167;46.988;15.470;2023-03-01T11:18:42;5.30;72.90
22006;DHT22;11167;46.988;15.470;2023-03-01T11:20:45;5.40;72.90
22006;DHT22;11167;46.988;15.470;2023-03-01T11:22:50;5.40;72.90
22006;DHT22;11167;46.988;15.470;2023-03-01T11:24:53;5.40;72.90
22006;DHT22;11167;46.988;15.470;2023-03-01T11:26:54;5.40;72.90
22006;DHT22;11167;46.988;15.470;2023-03-01T11:28:55;5.40;72.90
22006;DHT22;11167;46.988;15.470;2023-03-01T11:33:08;5.40;72.90
22006;DHT22;11167;46.988;15.470;2023-03-01T11:35:10;5.40;72.90
22006;DHT22;11167;46.988;15.470;2023-03-01T11:37:15;5.40;72.90
22006;DHT22;11167;46.988;15.470;2023-03-01T11:39:21;5.40;73.60
22006;DHT22;11167;46.988;15.470;2023-03-01T11:41:21;5.50;73.00
22006;DHT22;11167;46.988;15.470;2023-03-01T11:43:28;5.50;73.00
22006;DHT22;11167;46.988;15.470;2023-03-01T11:45:32;5.50;72.90
22006;DHT22;11167;46.988;15.470;2023-03-01T11:49:52;5.50;72.90
22006;DHT22;11167;46.988;15.470;2023-03-01T11:54:13;5.50;72.90
22006;DHT22;11167;46.988;15.470;2023-03-01T11:58:37;5.50;72.90
22006;DHT22;11167;46.988;15.470;2023-03-01T12:07:37;5.60;72.90
22006;DHT22;11167;46.988;15.470;2023-03-01T12:16:20;5.60;73.00
22006;DHT22;11167;46.988;15.470;2023-03-01T12:22:50;5.70;73.10
22006;DHT22;11167;46.988;15.470;2023-03-01T12:27:16;5.70;73.10
22006;DHT22;11167;46.988;15.470;2023-03-01T12:29:32;5.70;73.10
22006;DHT22;11167;46.988;15.470;2023-03-01T12:31:29;5.70;73.10
22006;DHT22;11167;46.988;15.470;2023-03-01T12:33:34;5.70;73.10
22006;DHT22;11167;46.988;15.470;2023-03-01T12:40:53;5.80;73.10
22006;DHT22;11167;46.988;15.470;2023-03-01T12:42:58;5.80;73.10
22006;DHT22;11167;46.988;15.470;2023-03-01T12:49:37;5.80;73.20
22006;DHT22;11167;46.988;15.470;2023-03-01T12:51:38;5.80;73.10
22006;DHT22;11167;46.988;15.470;2023-03-01T12:53:41;5.90;73.20
22006;DHT22;11167;46.988;15.470;2023-03-01T12:55:43;5.90;73.30
22006;DHT22;11167;46.988;15.470;2023-03-01T12:57:46;5.90;73.20
22006;DHT22;11167;46.988;15.470;2023-03-01T13:00:00;5.90;73.20
22006;DHT22;11167;46.988;15.470;2023-03-01T13:02:03;5.90;73.20
22006;DHT22;11167;46.988;15.470;2023-03-01T13:06:29;5.90;73.30
22006;DHT22;11167;46.988;15.470;2023-03-01T13:14:45;6.00;73.20
22006;DHT22;11167;46.988;15.470;2023-03-01T13:16:46;6.00;73.30
22006;DHT22;11167;46.988;15.470;2023-03-01T13:18:49;6.00;74.00
22006;DHT22;11167;46.988;15.470;2023-03-01T13:20:51;6.00;73.20
22006;DHT22;11167;46.988;15.470;2023-03-01T13:23:06;6.10;73.20
22006;DHT22;11167;46.988;15.470;2023-03-01T13:25:17;6.10;73.20
22006;DHT22;11167;46.988;15.470;2023-03-01T13:27:22;6.10;73.20
22006;DHT22;11167;46.988;15.470;2023-03-01T13:29:25;6.10;73.20
22006;DHT22;11167;46.988;15.470;2023-03-01T13:35:41;6.20;73.30
22006;DHT22;11167;46.988;15.470;2023-03-01T13:37:42;6.20;73.30
22006;DHT22;11167;46.988;15.470;2023-03-01T13:39:45;6.20;73.20
22006;DHT22;11167;46.988;15.470;2023-03-01T13:41:48;6.20;73.30
22006;DHT22;11167;46.988;15.470;2023-03-01T13:43:49;6.20;73.20
22006;DHT22;11167;46.988;15.470;2023-03-01T13:45:51;6.20;73.20
22006;DHT22;11167;46.988;15.470;2023-03-01T13:47:56;6.20;73.20
22006;DHT22;11167;46.988;15.470;2023-03-01T13:50:02;6.30;73.30
22006;DHT22;11167;46.988;15.470;2023-03-01T13:54:11;6.30;73.30
22006;DHT22;11167;46.988;15.470;2023-03-01T13:56:17;6.30;73.30
22006;DHT22;11167;46.988;15.470;2023-03-01T13:58:27;6.30;73.30
22006;DHT22;11167;46.988;15.470;2023-03-01T14:00:40;6.30;73.20
22006;DHT22;11167;46.988;15.470;2023-03-01T14:02:37;6.30;73.20
22006;DHT22;11167;46.988;15.470;2023-03-01T14:04:38;6.30;73.20
22006;DHT22;11167;46.988;15.470;2023-03-01T14:06:40;6.40;73.30
22006;DHT22;11167;46.988;15.470;2023-03-01T14:08:42;6.40;73.30
22006;DHT22;11167;46.988;15.470;2023-03-01T14:21:19;6.40;73.20
22006;DHT22;11167;46.988;15.470;2023-03-01T14:23:21;6.40;73.20
22006;DHT22;11167;46.988;15.470;2023-03-01T14:25:27;6.50;73.30
22006;DHT22;11167;46.988;15.470;2023-03-01T14:27:31;6.50;73.30